Time;durP1;ratioP1;P1;durP2;ratioP2;P2;SDS_P1;SDS_P2;PMS_P1;PMS_P2;Temp;Humidity;BMP_temperature;BMP_pressure;BME280_temperature;BME280_humidity;BME280_pressure;Samples;Min_cycle;Max_cycle;Signal;HPM_P1;HPM_P2
2023/03/17 00:00:17;;;;;;;8.00;6.87;;;6.10;99.90;;;;;;5016903;28;20457;-69
2023/03/17 00:02:44;;;;;;;7.90;6.20;;;6.10;99.90;;;;;;5021685;28;20452;-69
2023/03/17 00:05:25;;;;;;;8.27;6.90;;;6.00;99.90;;;;;;5010462;28;20448;-69
2023/03/17 00:07:52;;;;;;;9.40;7.33;;;6.10;99.90;;;;;;5013981;28;20815;-69
2023/03/17 00:10:22;;;;;;;9.60;7.63;;;6.10;99.90;;;;;;5013187;28;20441;-69
2023/03/17 00:12:52;;;;;;;13.40;7.43;;;6.00;99.90;;;;;;5009099;28;20457;-68
2023/03/17 00:15:20;;;;;;;11.00;6.70;;;6.00;99.90;;;;;;5011030;28;20795;-69
2023/03/17 00:17:47;;;;;;;10.80;6.77;;;6.00;99.90;;;;;;5016089;28;20874;-69
2023/03/17 00:20:24;;;;;;;9.73;7.17;;;6.00;99.90;;;;;;5015212;28;20780;-68
2023/03/17 00:22:50;;;;;;;10.07;7.20;;;6.00;99.90;;;;;;5020937;28;20449;-68
2023/03/17 00:25:24;;;;;;;8.10;7.27;;;6.10;99.90;;;;;;5026628;28;20445;-69
2023/03/17 00:27:50;;;;;;;8.83;6.10;;;6.10;99.90;;;;;;5027707;28;20618;-69
2023/03/17 00:30:16;;;;;;;12.50;10.00;;;6.10;99.90;;;;;;5013169;28;20445;-68
2023/03/17 00:32:44;;;;;;;10.37;7.70;;;6.10;99.90;;;;;;5026707;28;20206;-69
2023/03/17 00:35:37;;;;;;;7.07;6.37;;;6.10;99.90;;;;;;5013771;28;20966;-69
2023/03/17 00:38:02;;;;;;;8.33;7.20;;;6.10;99.90;;;;;;5010301;28;20461;-69
2023/03/17 00:40:29;;;;;;;7.80;6.60;;;6.10;99.90;;;;;;5011652;28;20441;-69
2023/03/17 00:42:56;;;;;;;11.03;8.83;;;6.10;99.90;;;;;;5011368;28;20311;-69
2023/03/17 00:45:24;;;;;;;10.20;8.30;;;6.10;99.90;;;;;;5021222;28;21301;-69
2023/03/17 00:47:53;;;;;;;11.50;7.40;;;6.10;99.90;;;;;;5002551;28;20489;-69
2023/03/17 00:50:25;;;;;;;7.40;6.60;;;6.10;99.90;;;;;;5019573;28;20528;-69
2023/03/17 00:52:53;;;;;;;11.40;7.40;;;6.10;99.90;;;;;;5019619;28;20454;-68
2023/03/17 00:55:20;;;;;;;9.97;7.07;;;6.10;99.90;;;;;;5001981;28;20449;-68
2023/03/17 00:57:47;;;;;;;8.10;7.30;;;6.10;99.90;;;;;;5018894;28;20453;-69
2023/03/17 01:00:21;;;;;;;7.33;6.63;;;6.10;99.90;;;;;;5014377;28;20433;-68
2023/03/17 01:02:47;;;;;;;8.03;7.10;;;6.10;99.90;;;;;;5019529;28;20444;-69
2023/03/17 01:05:13;;;;;;;10.30;7.10;;;6.10;99.90;;;;;;5020996;28;20433;-69
2023/03/17 01:07:39;;;;;;;9.60;6.50;;;6.10;99.90;;;;;;5020111;28;20458;-69
2023/03/17 01:10:17;;;;;;;8.00;7.10;;;6.10;99.90;;;;;;5010602;28;20186;-69
2023/03/17 01:12:44;;;;;;;7.40;6.53;;;6.10;99.90;;;;;;5012612;28;21055;-69
2023/03/17 01:15:13;;;;;;;8.17;7.33;;;6.10;99.90;;;;;;5025643;28;20471;-69
2023/03/17 01:17:41;;;;;;;9.13;7.00;;;6.10;99.90;;;;;;5020696;28;20450;-69
2023/03/17 01:20:10;;;;;;;11.73;7.43;;;6.10;99.90;;;;;;5010731;28;20453;-69
2023/03/17 01:22:35;;;;;;;7.80;7.00;;;6.10;99.90;;;;;;5006618;28;20469;-69
2023/03/17 01:25:01;;;;;;;7.90;7.10;;;6.10;99.90;;;;;;5022294;28;20465;-68
2023/03/17 01:27:27;;;;;;;8.53;7.47;;;6.20;99.90;;;;;;5011742;28;20195;-69
2023/03/17 01:29:53;;;;;;;7.90;6.07;;;6.20;99.90;;;;;;5020564;28;20495;-69
2023/03/17 01:32:19;;;;;;;9.70;7.20;;;6.30;99.90;;;;;;5009843;28;20465;-69
2023/03/17 01:34:45;;;;;;;7.37;6.43;;;6.30;99.90;;;;;;5024385;28;20441;-69
2023/03/17 01:37:11;;;;;;;7.97;7.17;;;6.40;99.90;;;;;;5020338;28;20199;-68
2023/03/17 01:39:36;;;;;;;7.77;6.77;;;6.40;99.90;;;;;;5018973;28;20433;-68
2023/03/17 01:42:03;;;;;;;9.10;6.50;;;6.40;99.90;;;;;;5001349;28;20191;-69
2023/03/17 01:44:28;;;;;;;7.50;6.27;;;6.40;99.90;;;;;;5012253;28;20194;-68
2023/03/17 01:46:54;;;;;;;9.27;7.70;;;6.40;99.90;;;;;;5015298;28;20464;-68
2023/03/17 01:49:37;;;;;;;6.70;6.10;;;6.40;99.90;;;;;;5021180;28;20664;-69
2023/03/17 01:52:10;;;;;;;10.37;7.60;;;6.40;99.90;;;;;;5003107;28;20711;-69
2023/03/17 01:54:41;;;;;;;11.03;7.13;;;6.40;99.90;;;;;;5013185;28;20605;-69
2023/03/17 01:57:43;;;;;;;8.00;6.53;;;6.40;99.90;;;;;;5018867;28;20475;-69
2023/03/17 02:00:16;;;;;;;7.23;6.53;;;6.30;99.90;;;;;;5008305;28;20959;-69
2023/03/17 02:02:45;;;;;;;9.50;6.20;;;6.30;99.90;;;;;;5017070;28;20445;-69
2023/03/17 02:05:14;;;;;;;7.53;6.73;;;6.30;99.90;;;;;;5011533;28;20437;-69
2023/03/17 02:07:40;;;;;;;6.57;5.70;;;6.20;99.90;;;;;;5011282;28;20499;-69
2023/03/17 02:10:07;;;;;;;6.50;4.90;;;6.20;99.90;;;;;;5020092;28;20652;-68
2023/03/17 02:12:34;;;;;;;5.80;5.03;;;6.10;99.90;;;;;;5016230;28;20549;-69
2023/03/17 02:15:00;;;;;;;6.40;5.20;;;6.00;99.90;;;;;;5001221;28;20535;-69
2023/03/17 02:17:27;;;;;;;6.70;4.67;;;5.90;99.90;;;;;;5009549;28;20901;-69
2023/03/17 02:19:52;;;;;;;8.50;5.63;;;5.90;99.90;;;;;;5014530;28;20806;-69
2023/03/17 02:22:18;;;;;;;5.90;5.30;;;5.90;99.90;;;;;;5008533;28;20449;-69
2023/03/17 02:24:51;;;;;;;5.57;4.77;;;6.00;99.90;;;;;;5020120;28;20210;-69
2023/03/17 02:27:22;;;;;;;6.70;4.90;;;6.00;99.90;;;;;;5023080;28;20989;-68
2023/03/17 02:29:49;;;;;;;8.13;5.03;;;6.00;99.90;;;;;;5020812;28;20456;-69
2023/03/17 02:32:16;;;;;;;7.10;5.70;;;6.00;99.90;;;;;;5004845;28;20458;-69
2023/03/17 02:34:43;;;;;;;7.30;4.70;;;5.90;99.90;;;;;;5000836;28;20449;-68
2023/03/17 02:37:09;;;;;;;6.03;5.00;;;5.90;99.90;;;;;;5009357;28;20889;-69
2023/03/17 02:39:35;;;;;;;7.47;5.77;;;5.90;99.90;;;;;;5011816;28;20580;-69
2023/03/17 02:42:01;;;;;;;6.03;5.43;;;5.90;99.90;;;;;;5011251;28;20662;-68
2023/03/17 02:44:26;;;;;;;12.03;5.20;;;5.80;99.90;;;;;;5009472;28;20438;-69
2023/03/17 02:46:52;;;;;;;5.83;5.33;;;5.80;99.90;;;;;;5017015;28;20555;-69
2023/03/17 02:49:18;;;;;;;6.43;5.70;;;5.80;99.90;;;;;;5014942;28;20194;-69
2023/03/17 02:51:44;;;;;;;6.13;5.47;;;5.70;99.90;;;;;;5017808;28;20566;-68
2023/03/17 02:54:10;;;;;;;6.70;5.60;;;5.70;99.90;;;;;;5016264;28;20931;-69
2023/03/17 02:56:36;;;;;;;6.50;5.27;;;5.80;99.90;;;;;;5014706;28;20440;-69
2023/03/17 02:59:02;;;;;;;5.60;5.00;;;5.80;99.90;;;;;;5009119;28;20187;-68
2023/03/17 03:01:29;;;;;;;6.00;5.40;;;5.80;99.90;;;;;;5010155;28;20449;-69
2023/03/17 03:03:55;;;;;;;7.17;6.43;;;5.80;99.90;;;;;;5016150;28;20446;-69
2023/03/17 03:06:22;;;;;;;6.20;5.20;;;5.80;99.90;;;;;;5018735;28;20527;-68
2023/03/17 03:08:48;;;;;;;5.33;4.83;;;5.70;99.90;;;;;;5014676;28;20497;-69
2023/03/17 03:11:14;;;;;;;5.37;4.87;;;5.70;99.90;;;;;;5006865;28;20488;-69
2023/03/17 03:13:40;;;;;;;6.93;5.00;;;5.70;99.90;;;;;;5001962;28;20211;-69
2023/03/17 03:16:06;;;;;;;6.10;5.20;;;5.70;99.90;;;;;;5007957;28;20680;-69
2023/03/17 03:18:31;;;;;;;5.17;4.67;;;5.70;99.90;;;;;;5010361;28;20213;-69
2023/03/17 03:20:57;;;;;;;5.57;4.97;;;5.70;99.90;;;;;;5022419;28;20499;-69
2023/03/17 03:23:23;;;;;;;6.70;5.90;;;5.80;99.90;;;;;;5017699;28;20190;-69
2023/03/17 03:25:48;;;;;;;6.50;5.17;;;5.80;99.90;;;;;;5019565;28;20218;-69
2023/03/17 03:28:14;;;;;;;6.00;5.50;;;5.80;99.90;;;;;;5019797;28;20209;-68
2023/03/17 03:30:40;;;;;;;4.77;4.17;;;5.80;99.90;;;;;;5024422;28;20179;-69
2023/03/17 03:33:06;;;;;;;5.33;4.80;;;5.80;99.90;;;;;;5013680;28;20199;-69
2023/03/17 03:35:33;;;;;;;4.67;4.27;;;5.80;99.90;;;;;;5019784;28;20972;-69
2023/03/17 03:37:58;;;;;;;6.77;5.07;;;5.70;99.90;;;;;;5021247;28;20463;-69
2023/03/17 03:40:24;;;;;;;5.67;5.17;;;5.70;99.90;;;;;;5003849;28;20437;-69
2023/03/17 03:42:50;;;;;;;4.10;3.70;;;5.60;99.90;;;;;;5025361;28;20188;-69
2023/03/17 03:45:16;;;;;;;4.67;4.07;;;5.60;99.90;;;;;;5025941;28;20178;-69
2023/03/17 03:47:41;;;;;;;7.17;4.60;;;5.60;99.90;;;;;;5019893;28;20843;-69
2023/03/17 03:50:08;;;;;;;5.17;4.23;;;5.50;99.90;;;;;;5012277;28;21018;-68
2023/03/17 03:52:34;;;;;;;5.23;4.70;;;5.40;99.90;;;;;;5022362;28;20243;-69
2023/03/17 03:54:59;;;;;;;5.87;5.13;;;5.40;99.90;;;;;;5031937;28;20449;-69
2023/03/17 03:57:25;;;;;;;5.17;4.43;;;5.40;99.90;;;;;;5018174;28;20457;-69
2023/03/17 03:59:51;;;;;;;5.37;4.87;;;5.30;99.90;;;;;;5030720;28;20655;-69
2023/03/17 04:02:17;;;;;;;4.23;3.53;;;5.30;99.90;;;;;;5022748;28;20187;-69
2023/03/17 04:04:43;;;;;;;5.70;4.43;;;5.40;99.90;;;;;;5017330;28;20556;-69
2023/03/17 04:07:08;;;;;;;5.00;4.50;;;5.30;99.90;;;;;;5019003;28;20457;-69
2023/03/17 04:09:35;;;;;;;4.60;4.20;;;5.30;99.90;;;;;;5024331;28;20443;-69
2023/03/17 04:12:01;;;;;;;4.97;4.40;;;5.30;99.90;;;;;;5015745;28;20271;-69
2023/03/17 04:14:27;;;;;;;4.10;3.80;;;5.30;99.90;;;;;;5022856;28;20434;-69
2023/03/17 04:16:53;;;;;;;6.60;4.03;;;5.20;99.90;;;;;;5016737;28;20459;-69
2023/03/17 04:19:20;;;;;;;3.90;3.57;;;5.20;99.90;;;;;;5015074;28;20589;-68
2023/03/17 04:21:46;;;;;;;4.87;4.40;;;5.20;99.90;;;;;;5015381;28;20179;-69
2023/03/17 04:24:12;;;;;;;6.07;4.67;;;5.10;99.90;;;;;;5025517;28;20447;-69
2023/03/17 04:26:37;;;;;;;5.20;4.70;;;5.10;99.90;;;;;;5020121;28;20433;-69
2023/03/17 04:29:03;;;;;;;4.50;4.10;;;5.10;99.90;;;;;;5020364;28;20544;-69
2023/03/17 04:31:28;;;;;;;4.33;3.90;;;5.10;99.90;;;;;;5017493;28;20184;-69
2023/03/17 04:33:54;;;;;;;6.27;3.93;;;5.10;99.90;;;;;;5027538;28;20220;-69
2023/03/17 04:36:22;;;;;;;4.63;4.20;;;5.10;99.90;;;;;;5010565;28;20254;-69
2023/03/17 04:38:48;;;;;;;6.30;3.93;;;5.10;99.90;;;;;;5008405;28;20708;-69
2023/03/17 04:41:14;;;;;;;5.67;3.97;;;5.20;99.90;;;;;;5012661;28;20453;-69
2023/03/17 04:43:40;;;;;;;8.73;3.93;;;5.20;99.90;;;;;;5021587;28;20436;-69
2023/03/17 04:46:06;;;;;;;4.73;4.37;;;5.20;99.90;;;;;;5026804;28;20183;-69
2023/03/17 04:48:32;;;;;;;6.77;4.40;;;5.10;99.90;;;;;;5019690;28;20828;-69
2023/03/17 04:50:57;;;;;;;6.50;4.10;;;5.20;99.90;;;;;;5025129;28;20212;-68
2023/03/17 04:53:23;;;;;;;4.20;3.70;;;5.10;99.90;;;;;;5008087;28;20318;-69
2023/03/17 04:55:49;;;;;;;3.93;3.50;;;5.10;99.90;;;;;;5011744;28;20185;-69
2023/03/17 04:58:14;;;;;;;4.63;4.23;;;5.10;99.90;;;;;;5020068;28;20519;-69
2023/03/17 05:00:40;;;;;;;4.40;4.00;;;5.10;99.90;;;;;;5013272;28;20206;-69
2023/03/17 05:03:05;;;;;;;7.30;4.70;;;5.10;99.90;;;;;;5024285;28;20671;-68
2023/03/17 05:05:31;;;;;;;4.37;3.33;;;5.00;99.90;;;;;;5031947;28;20236;-69
2023/03/17 05:07:57;;;;;;;6.60;4.30;;;5.00;99.90;;;;;;5005487;28;20206;-69
2023/03/17 05:10:23;;;;;;;4.53;3.90;;;5.00;99.90;;;;;;5011935;28;20804;-69
2023/03/17 05:12:48;;;;;;;4.20;3.50;;;5.00;99.90;;;;;;5020211;28;20211;-69
2023/03/17 05:15:14;;;;;;;5.77;4.03;;;5.00;99.90;;;;;;5020791;28;20615;-69
2023/03/17 05:17:40;;;;;;;4.57;3.90;;;5.00;99.90;;;;;;5022086;28;20574;-68
2023/03/17 05:20:07;;;;;;;7.13;3.87;;;5.00;99.90;;;;;;5019526;28;20802;-68
2023/03/17 05:22:33;;;;;;;4.50;3.70;;;5.00;99.90;;;;;;5011636;28;20210;-69
2023/03/17 05:24:58;;;;;;;6.57;4.43;;;5.00;99.90;;;;;;5012948;28;20488;-69
2023/03/17 05:27:24;;;;;;;4.53;4.10;;;4.90;99.90;;;;;;5007273;28;20309;-69
2023/03/17 05:29:50;;;;;;;5.10;3.60;;;4.90;99.90;;;;;;5022127;28;20177;-69
2023/03/17 05:32:15;;;;;;;11.57;8.33;;;4.90;99.90;;;;;;5014674;28;20202;-69
2023/03/17 05:34:41;;;;;;;8.20;6.20;;;4.90;99.90;;;;;;5021612;28;20208;-69
2023/03/17 05:37:06;;;;;;;8.20;4.80;;;4.80;99.90;;;;;;5006698;28;20390;-69
2023/03/17 05:39:32;;;;;;;5.33;4.10;;;4.80;99.90;;;;;;5007947;28;20648;-69
2023/03/17 05:41:57;;;;;;;5.70;4.00;;;4.80;99.90;;;;;;5009340;28;20216;-69
2023/03/17 05:44:23;;;;;;;5.30;3.57;;;4.80;99.90;;;;;;4990869;28;20763;-69
2023/03/17 05:46:49;;;;;;;8.40;3.67;;;4.80;99.90;;;;;;4990602;28;20191;-69
2023/03/17 05:49:14;;;;;;;8.10;4.07;;;4.80;99.90;;;;;;4989248;28;20267;-70
2023/03/17 05:51:40;;;;;;;4.53;4.00;;;4.80;99.90;;;;;;4990207;28;20183;-70
2023/03/17 05:54:07;;;;;;;4.40;3.90;;;4.90;99.90;;;;;;4982695;28;20601;-71
2023/03/17 05:56:33;;;;;;;5.87;4.47;;;4.90;99.90;;;;;;4991516;28;20462;-71
2023/03/17 05:59:01;;;;;;;5.17;4.30;;;4.90;99.90;;;;;;4987445;28;20462;-70
2023/03/17 06:01:28;;;;;;;6.93;6.13;;;5.00;99.90;;;;;;4987813;28;20199;-70
2023/03/17 06:03:53;;;;;;;8.43;5.40;;;5.00;99.90;;;;;;4987312;28;20855;-71
2023/03/17 06:06:19;;;;;;;5.67;5.03;;;5.10;99.90;;;;;;4991121;28;20541;-70
2023/03/17 06:08:44;;;;;;;9.33;5.10;;;5.10;99.90;;;;;;4990980;28;20191;-70
2023/03/17 06:11:10;;;;;;;8.10;4.80;;;5.10;99.90;;;;;;4991315;28;20179;-70
2023/03/17 06:13:35;;;;;;;5.60;4.30;;;5.20;99.90;;;;;;4992268;28;20258;-70
2023/03/17 06:16:02;;;;;;;7.33;3.80;;;5.30;99.90;;;;;;4992562;28;20531;-70
2023/03/17 06:18:27;;;;;;;6.20;4.30;;;5.50;99.90;;;;;;4987853;28;20283;-70
2023/03/17 06:20:53;;;;;;;5.60;4.30;;;5.70;99.90;;;;;;4992263;28;20517;-70
2023/03/17 06:23:20;;;;;;;7.43;5.20;;;6.00;99.90;;;;;;4992698;28;20206;-70
2023/03/17 06:25:46;;;;;;;10.33;4.77;;;6.20;99.90;;;;;;4992623;28;20488;-71
2023/03/17 06:28:12;;;;;;;5.37;3.80;;;6.40;99.90;;;;;;4992021;28;20450;-70
2023/03/17 06:30:37;;;;;;;8.73;4.17;;;6.50;99.90;;;;;;4992500;28;20950;-70
2023/03/17 06:33:04;;;;;;;10.50;4.67;;;6.60;99.90;;;;;;4992687;28;20238;-70
2023/03/17 06:35:31;;;;;;;6.87;4.27;;;6.70;99.90;;;;;;4990366;28;20179;-70
2023/03/17 06:37:56;;;;;;;6.73;3.10;;;6.70;99.90;;;;;;4978671;28;20553;-70
2023/03/17 06:40:22;;;;;;;4.73;4.00;;;6.80;99.90;;;;;;4991966;28;20522;-70
2023/03/17 06:42:48;;;;;;;6.47;5.73;;;6.90;99.90;;;;;;4992650;28;20187;-70
2023/03/17 06:45:14;;;;;;;6.60;4.50;;;7.20;99.90;;;;;;4992382;28;20422;-71
2023/03/17 06:47:39;;;;;;;6.93;5.50;;;7.50;99.90;;;;;;4991886;28;20223;-71
2023/03/17 06:50:08;;;;;;;7.83;3.93;;;7.80;99.90;;;;;;4991851;28;20267;-71
2023/03/17 06:52:34;;;;;;;3.47;2.57;;;8.20;99.90;;;;;;4991880;28;20286;-70
2023/03/17 06:55:00;;;;;;;4.73;3.63;;;8.40;99.90;;;;;;4991923;28;20941;-70
2023/03/17 06:57:26;;;;;;;3.77;3.47;;;8.60;99.90;;;;;;4992366;28;20481;-70
2023/03/17 06:59:52;;;;;;;4.83;3.57;;;8.80;99.90;;;;;;4992910;28;20176;-70
2023/03/17 07:02:17;;;;;;;7.50;4.77;;;8.90;99.90;;;;;;4996014;28;20180;-70
2023/03/17 07:04:43;;;;;;;4.70;3.33;;;9.20;99.90;;;;;;4995409;28;20191;-71
2023/03/17 07:07:08;;;;;;;6.83;4.20;;;9.50;99.90;;;;;;4995911;28;20279;-70
2023/03/17 07:09:34;;;;;;;6.47;4.07;;;9.60;99.90;;;;;;4995388;28;20179;-70
2023/03/17 07:12:03;;;;;;;8.20;4.67;;;9.70;99.90;;;;;;4996129;28;20218;-70
2023/03/17 07:14:32;;;;;;;8.77;4.30;;;9.90;99.90;;;;;;4995898;28;20186;-70
2023/03/17 07:16:58;;;;;;;8.17;4.67;;;10.10;99.90;;;;;;4995729;28;20446;-70
2023/03/17 07:19:26;;;;;;;4.03;3.67;;;10.30;99.90;;;;;;4995189;28;20822;-70
2023/03/17 07:21:52;;;;;;;7.50;3.73;;;10.30;99.90;;;;;;4986641;28;20532;-70
2023/03/17 07:24:17;;;;;;;6.10;3.70;;;10.30;99.90;;;;;;4995707;28;20883;-70
2023/03/17 07:26:43;;;;;;;5.70;4.70;;;10.20;99.80;;;;;;4993365;28;20441;-71
2023/03/17 07:29:08;;;;;;;3.03;2.80;;;10.20;99.90;;;;;;4994341;28;20267;-70
2023/03/17 07:31:37;;;;;;;6.93;3.13;;;10.20;99.90;;;;;;4994127;28;20238;-70
2023/03/17 07:34:05;;;;;;;3.57;3.10;;;10.20;99.40;;;;;;4986778;28;20229;-71
2023/03/17 07:36:31;;;;;;;2.97;2.73;;;10.40;98.00;;;;;;4978408;28;20427;-71
2023/03/17 07:38:57;;;;;;;4.10;3.07;;;10.40;97.50;;;;;;4975262;28;20526;-70
2023/03/17 07:41:22;;;;;;;5.53;4.07;;;10.40;97.20;;;;;;4993854;28;20529;-70
2023/03/17 07:43:48;;;;;;;5.47;2.97;;;10.50;97.30;;;;;;4988269;28;20198;-70
2023/03/17 07:46:13;;;;;;;4.70;3.97;;;10.50;96.90;;;;;;4994716;28;20176;-70
2023/03/17 07:48:42;;;;;;;6.60;3.73;;;10.60;97.00;;;;;;4994647;28;20241;-71
2023/03/17 07:51:13;;;;;;;4.53;3.30;;;10.60;96.90;;;;;;4995055;28;20262;-70
2023/03/17 07:53:39;;;;;;;6.83;3.77;;;10.80;98.60;;;;;;4994898;28;20520;-70
2023/03/17 07:56:05;;;;;;;5.17;2.93;;;11.10;98.40;;;;;;4987715;28;20439;-70
2023/03/17 07:58:31;;;;;;;3.80;3.40;;;11.50;98.80;;;;;;4984818;28;20192;-70
2023/03/17 08:00:57;;;;;;;3.60;2.57;;;11.80;97.40;;;;;;4995107;28;20433;-69
2023/03/17 08:03:23;;;;;;;4.70;4.30;;;11.90;96.50;;;;;;4995043;28;20178;-68
2023/03/17 08:05:54;;;;;;;5.47;4.00;;;12.00;96.30;;;;;;4994995;28;20549;-69
2023/03/17 08:08:21;;;;;;;5.73;3.43;;;12.40;96.30;;;;;;4994362;28;20282;-69
2023/03/17 08:10:47;;;;;;;5.40;3.73;;;12.70;94.50;;;;;;4994375;28;20427;-69
2023/03/17 08:13:13;;;;;;;4.77;3.47;;;12.90;92.70;;;;;;4980976;28;20562;-69
2023/03/17 08:15:39;;;;;;;6.30;3.17;;;13.10;92.60;;;;;;4994847;28;20426;-69
2023/03/17 08:18:05;;;;;;;4.00;3.60;;;13.50;92.70;;;;;;4994479;28;20446;-70
2023/03/17 08:20:32;;;;;;;4.70;3.10;;;14.00;91.50;;;;;;4993790;28;21137;-69
2023/03/17 08:22:58;;;;;;;4.47;4.00;;;14.50;90.50;;;;;;4994513;28;20518;-69
2023/03/17 08:25:23;;;;;;;4.10;2.90;;;14.40;81.30;;;;;;4993899;28;20530;-69
2023/03/17 08:27:50;;;;;;;3.07;2.80;;;14.50;80.10;;;;;;4992015;28;20204;-69
2023/03/17 08:30:15;;;;;;;9.80;2.80;;;14.40;74.70;;;;;;4993758;28;20568;-69
2023/03/17 08:32:41;;;;;;;3.10;2.70;;;13.90;74.30;;;;;;4993101;28;20512;-69
2023/03/17 08:35:12;;;;;;;3.57;3.07;;;13.70;75.10;;;;;;4987780;28;20619;-68
2023/03/17 08:37:38;;;;;;;4.00;3.60;;;13.60;76.10;;;;;;4994057;28;20443;-69
2023/03/17 08:40:04;;;;;;;4.17;3.57;;;13.90;75.80;;;;;;4993140;28;20422;-68
2023/03/17 08:42:30;;;;;;;4.00;2.97;;;14.10;74.60;;;;;;4993815;28;20180;-69
2023/03/17 08:44:56;;;;;;;2.77;2.57;;;14.20;72.90;;;;;;4994116;28;20768;-69
2023/03/17 08:47:22;;;;;;;3.20;2.83;;;14.40;72.70;;;;;;4993159;28;20227;-68
2023/03/17 08:49:49;;;;;;;2.57;2.37;;;14.70;71.10;;;;;;4992992;28;20427;-68
2023/03/17 08:52:15;;;;;;;5.87;4.27;;;14.90;70.10;;;;;;4985970;28;20828;-69
2023/03/17 08:54:42;;;;;;;2.60;2.40;;;15.40;70.60;;;;;;4974450;28;20446;-69
2023/03/17 08:57:07;;;;;;;4.07;2.40;;;15.50;66.90;;;;;;4974605;28;20525;-69
2023/03/17 08:59:33;;;;;;;2.83;2.37;;;15.70;66.90;;;;;;4973868;28;20460;-69
2023/03/17 09:01:59;;;;;;;2.70;2.17;;;15.80;66.20;;;;;;4974475;28;20180;-68
2023/03/17 09:04:25;;;;;;;3.93;2.13;;;15.80;63.70;;;;;;4989349;28;20194;-68
2023/03/17 09:06:52;;;;;;;3.27;2.43;;;15.60;63.10;;;;;;4993621;28;20439;-68
2023/03/17 09:09:17;;;;;;;3.50;2.27;;;15.90;62.50;;;;;;4992915;28;20415;-69
2023/03/17 09:11:43;;;;;;;2.80;2.33;;;16.60;60.80;;;;;;4993637;28;20425;-69
2023/03/17 09:14:08;;;;;;;1.83;1.70;;;17.30;58.00;;;;;;4993552;28;20290;-69
2023/03/17 09:16:34;;;;;;;5.90;2.33;;;17.70;57.40;;;;;;4993619;28;20226;-69
2023/03/17 09:19:00;;;;;;;2.57;2.37;;;18.70;56.50;;;;;;4988502;28;20184;-69
2023/03/17 09:21:26;;;;;;;4.13;3.10;;;19.20;54.10;;;;;;4989391;28;20179;-68
2023/03/17 09:23:52;;;;;;;2.87;2.67;;;19.00;54.40;;;;;;4993565;28;20167;-68
2023/03/17 09:26:19;;;;;;;3.10;2.67;;;19.40;53.40;;;;;;4993401;28;20426;-68
2023/03/17 09:28:44;;;;;;;3.90;3.47;;;19.70;53.20;;;;;;4992631;28;20191;-68
2023/03/17 09:31:11;;;;;;;4.03;2.60;;;20.20;53.30;;;;;;4993283;28;20434;-68
2023/03/17 09:33:38;;;;;;;2.30;2.07;;;20.10;51.40;;;;;;4993278;28;20203;-69
2023/03/17 09:36:04;;;;;;;2.63;2.43;;;19.30;52.30;;;;;;4988066;28;21029;-69
2023/03/17 09:38:30;;;;;;;2.63;2.43;;;19.20;53.10;;;;;;4992337;28;20462;-69
2023/03/17 09:41:05;;;;;;;2.30;2.10;;;19.20;52.50;;;;;;4993243;28;20175;-69
2023/03/17 09:43:37;;;;;;;1.97;1.87;;;18.80;53.40;;;;;;4993178;28;20426;-69
2023/03/17 09:46:36;;;;;;;3.30;2.50;;;18.70;53.30;;;;;;4993220;28;20414;-69
2023/03/17 09:49:07;;;;;;;2.60;2.40;;;18.90;51.10;;;;;;4999694;28;20936;-70
2023/03/17 09:51:34;;;;;;;2.97;2.27;;;18.50;50.40;;;;;;4992076;28;20443;-69
2023/03/17 09:54:03;;;;;;;3.80;3.13;;;18.20;50.30;;;;;;4984402;28;20971;-69
2023/03/17 09:56:32;;;;;;;7.20;2.63;;;17.90;50.90;;;;;;4992580;28;20470;-70
2023/03/17 09:59:03;;;;;;;3.00;2.73;;;17.90;51.10;;;;;;4990810;28;20944;-69
2023/03/17 10:01:29;;;;;;;3.23;2.90;;;18.50;50.90;;;;;;4981956;28;20894;-70
2023/03/17 10:03:55;;;;;;;4.73;2.30;;;19.00;49.90;;;;;;4992562;28;20457;-70
2023/03/17 10:06:34;;;;;;;3.63;3.33;;;19.40;49.10;;;;;;4992777;28;20418;-70
2023/03/17 10:09:25;;;;;;;4.77;2.63;;;19.20;49.40;;;;;;4990811;28;20168;-69
2023/03/17 10:12:03;;;;;;;2.93;2.73;;;18.90;49.90;;;;;;4992541;28;20439;-70
2023/03/17 10:14:39;;;;;;;2.80;2.60;;;19.00;49.40;;;;;;4992688;28;20438;-69
2023/03/17 10:17:30;;;;;;;4.37;2.50;;;19.00;50.20;;;;;;4992225;28;20462;-70
2023/03/17 10:20:08;;;;;;;6.40;2.70;;;18.90;50.70;;;;;;4991330;28;20430;-70
2023/03/17 10:22:38;;;;;;;3.17;2.17;;;18.70;50.60;;;;;;4981784;28;20485;-69
2023/03/17 10:25:13;;;;;;;4.10;2.80;;;18.40;51.40;;;;;;4985366;28;20461;-69
2023/03/17 10:27:41;;;;;;;2.90;1.90;;;18.50;52.40;;;;;;4990673;28;20437;-70
2023/03/17 10:30:18;;;;;;;3.63;2.30;;;18.70;51.80;;;;;;4991694;28;20814;-69
2023/03/17 10:32:45;;;;;;;2.33;2.10;;;19.30;51.70;;;;;;4992301;28;20462;-70
2023/03/17 10:35:12;;;;;;;2.00;1.80;;;19.60;50.50;;;;;;4993443;28;20435;-70
2023/03/17 10:37:38;;;;;;;2.30;2.10;;;19.70;50.80;;;;;;4996576;28;20473;-70
2023/03/17 10:40:09;;;;;;;2.37;1.97;;;19.50;50.70;;;;;;4995663;28;20414;-70
2023/03/17 10:42:46;;;;;;;2.40;2.17;;;20.00;52.00;;;;;;4996477;28;20962;-70
2023/03/17 10:45:30;;;;;;;2.07;1.87;;;21.50;48.80;;;;;;4996473;28;20437;-69
2023/03/17 10:47:58;;;;;;;2.60;2.20;;;23.00;47.10;;;;;;4995530;28;20485;-69
2023/03/17 10:50:30;;;;;;;5.10;4.03;;;23.80;45.30;;;;;;4994743;28;20438;-69
2023/03/17 10:53:06;;;;;;;2.60;1.70;;;23.50;44.70;;;;;;4987185;28;20867;-69
2023/03/17 10:55:39;;;;;;;3.20;2.90;;;24.70;43.10;;;;;;4982819;28;20518;-69
2023/03/17 10:58:14;;;;;;;2.33;1.80;;;25.20;43.80;;;;;;4996018;28;20441;-70
2023/03/17 11:00:49;;;;;;;1.80;1.70;;;26.60;41.30;;;;;;4996211;28;20414;-72
2023/03/17 11:03:25;;;;;;;1.90;1.70;;;26.20;39.50;;;;;;4996083;28;20409;-69
2023/03/17 11:05:59;;;;;;;1.80;1.60;;;26.20;39.00;;;;;;4988911;28;20461;-70
2023/03/17 11:08:34;;;;;;;4.90;4.03;;;25.70;39.00;;;;;;4995105;28;20438;-69
2023/03/17 11:11:04;;;;;;;2.57;2.20;;;25.60;39.30;;;;;;4988921;28;20932;-66
2023/03/17 11:13:29;;;;;;;1.80;1.70;;;24.50;38.80;;;;;;4990475;28;21053;-67
2023/03/17 11:16:03;;;;;;;2.33;2.10;;;23.70;40.10;;;;;;4981555;28;20428;-68
2023/03/17 11:18:35;;;;;;;1.83;1.73;;;23.60;39.80;;;;;;4987343;28;20624;-67
2023/03/17 11:21:10;;;;;;;1.60;1.50;;;23.00;40.60;;;;;;4989074;28;20434;-68
2023/03/17 11:23:51;;;;;;;3.50;2.60;;;24.10;40.60;;;;;;4993622;28;20516;-71
2023/03/17 11:26:41;;;;;;;2.20;2.00;;;24.20;40.70;;;;;;4995685;28;20418;-70
2023/03/17 11:29:25;;;;;;;3.00;2.53;;;24.00;40.20;;;;;;4995127;28;20920;-70
2023/03/17 11:32:20;;;;;;;4.40;2.60;;;22.50;41.50;;;;;;4995461;28;20434;-70
2023/03/17 11:35:22;;;;;;;3.10;2.50;;;22.40;43.20;;;;;;4990810;28;20543;-70
2023/03/17 11:37:53;;;;;;;3.17;2.23;;;22.70;43.20;;;;;;4989002;28;20830;-70
2023/03/17 11:40:33;;;;;;;3.40;2.90;;;22.70;43.20;;;;;;4983164;28;20965;-71
2023/03/17 11:43:26;;;;;;;2.70;2.27;;;23.20;43.00;;;;;;4985077;28;20806;-70
2023/03/17 11:46:01;;;;;;;2.43;2.20;;;22.70;42.70;;;;;;4985348;28;20861;-70
2023/03/17 11:48:51;;;;;;;2.47;2.13;;;22.50;43.60;;;;;;4985058;28;21009;-70
2023/03/17 11:51:50;;;;;;;5.23;2.50;;;24.00;42.40;;;;;;4987455;28;20500;-71
2023/03/17 11:54:29;;;;;;;1.97;1.80;;;25.90;40.30;;;;;;4986949;28;20532;-72
2023/03/17 11:57:03;;;;;;;2.33;2.13;;;27.70;37.10;;;;;;4982969;28;20473;-72
2023/03/17 11:59:44;;;;;;;2.13;1.77;;;28.20;35.50;;;;;;4989224;28;20912;-72
2023/03/17 12:02:37;;;;;;;1.80;1.70;;;28.60;35.00;;;;;;4986262;28;20932;-72
2023/03/17 12:05:17;;;;;;;2.23;2.00;;;28.80;34.60;;;;;;4983233;28;20952;-72
2023/03/17 12:07:52;;;;;;;2.37;1.67;;;27.50;35.00;;;;;;4985946;28;21715;-72
2023/03/17 12:10:37;;;;;;;2.20;1.90;;;27.20;35.20;;;;;;4992163;28;20434;-72
2023/03/17 12:13:06;;;;;;;2.40;1.83;;;26.50;35.70;;;;;;4993794;28;20501;-71
2023/03/17 12:15:38;;;;;;;2.40;1.80;;;24.70;36.70;;;;;;4991204;28;20425;-72
2023/03/17 12:18:22;;;;;;;2.23;1.83;;;24.40;37.70;;;;;;4994542;28;20445;-72
2023/03/17 12:20:51;;;;;;;2.57;2.03;;;24.40;37.40;;;;;;4991134;28;20845;-72
2023/03/17 12:23:37;;;;;;;1.87;1.67;;;23.80;37.20;;;;;;4992691;28;20517;-72
2023/03/17 12:26:14;;;;;;;2.47;1.77;;;24.50;38.00;;;;;;4994354;28;20832;-72
2023/03/17 12:29:04;;;;;;;2.60;2.40;;;26.00;36.80;;;;;;4993405;28;20454;-72
2023/03/17 12:31:36;;;;;;;1.97;1.80;;;26.20;35.20;;;;;;4991977;28;20882;-72
2023/03/17 12:34:14;;;;;;;1.90;1.80;;;25.80;36.50;;;;;;4993791;28;20458;-72
2023/03/17 12:36:41;;;;;;;2.00;1.80;;;24.50;35.60;;;;;;4994153;28;20410;-71
2023/03/17 12:39:12;;;;;;;1.97;1.87;;;23.70;37.00;;;;;;4993441;28;20494;-72
2023/03/17 12:41:49;;;;;;;1.77;1.67;;;23.20;37.20;;;;;;4994253;28;20433;-71
2023/03/17 12:44:38;;;;;;;4.93;2.53;;;23.00;38.10;;;;;;4994352;28;20847;-71
2023/03/17 12:47:10;;;;;;;2.53;2.33;;;23.00;38.70;;;;;;4993948;28;20458;-71
2023/03/17 12:50:03;;;;;;;2.23;2.13;;;23.20;39.30;;;;;;4993382;28;20415;-71
2023/03/17 12:53:14;;;;;;;3.97;2.10;;;23.70;38.90;;;;;;4990265;28;20470;-71
2023/03/17 12:55:44;;;;;;;2.63;2.10;;;24.30;38.50;;;;;;4969428;28;20431;-71
2023/03/17 12:58:31;;;;;;;2.50;2.00;;;23.20;38.30;;;;;;4973564;28;20542;-71
2023/03/17 13:01:28;;;;;;;2.47;2.27;;;22.90;40.10;;;;;;4974424;28;20929;-71
2023/03/17 13:04:03;;;;;;;4.93;3.20;;;21.90;41.40;;;;;;4975562;28;20420;-71